sensor_id;sensor_type;location;lat;lon;timestamp;temperature;humidity
58582;DHT22;44361;51.476;5.700;2023-04-25T00:01:38;7.20;99.90
58582;DHT22;44361;51.476;5.700;2023-04-25T00:04:04;7.10;99.90
58582;DHT22;44361;51.476;5.700;2023-04-25T00:06:32;7.10;99.90
58582;DHT22;44361;51.476;5.700;2023-04-25T00:08:58;7.10;99.90
58582;DHT22;44361;51.476;5.700;2023-04-25T00:11:23;7.10;99.90
58582;DHT22;44361;51.476;5.700;2023-04-25T00:13:49;7.10;99.90
58582;DHT22;44361;51.476;5.700;2023-04-25T00:16:19;7.10;99.90
58582;DHT22;44361;51.476;5.700;2023-04-25T00:18:45;7.10;99.90
58582;DHT22;44361;51.476;5.700;2023-04-25T00:21:19;7.10;99.90
58582;DHT22;44361;51.476;5.700;2023-04-25T00:23:45;7.10;99.90
58582;DHT22;44361;51.476;5.700;2023-04-25T00:26:11;7.10;99.90
58582;DHT22;44361;51.476;5.700;2023-04-25T00:28:37;7.10;99.90
58582;DHT22;44361;51.476;5.700;2023-04-25T00:31:03;7.10;99.90
58582;DHT22;44361;51.476;5.700;2023-04-25T00:33:29;7.00;99.90
58582;DHT22;44361;51.476;5.700;2023-04-25T00:35:55;7.00;99.90
58582;DHT22;44361;51.476;5.700;2023-04-25T00:38:21;7.00;99.90
58582;DHT22;44361;51.476;5.700;2023-04-25T00:40:47;7.00;99.90
58582;DHT22;44361;51.476;5.700;2023-04-25T00:43:12;6.90;99.90
58582;DHT22;44361;51.476;5.700;2023-04-25T00:45:39;7.00;99.90
58582;DHT22;44361;51.476;5.700;2023-04-25T00:48:05;7.00;99.90
58582;DHT22;44361;51.476;5.700;2023-04-25T00:50:32;7.00;99.90
58582;DHT22;44361;51.476;5.700;2023-04-25T00:52:58;6.90;99.90
58582;DHT22;44361;51.476;5.700;2023-04-25T00:55:24;6.90;99.90
58582;DHT22;44361;51.476;5.700;2023-04-25T00:57:49;6.80;99.90
58582;DHT22;44361;51.476;5.700;2023-04-25T01:00:15;6.80;99.90
58582;DHT22;44361;51.476;5.700;2023-04-25T01:02:41;6.70;99.90
58582;DHT22;44361;51.476;5.700;2023-04-25T01:05:08;6.60;99.90
58582;DHT22;44361;51.476;5.700;2023-04-25T01:07:34;6.50;99.90
58582;DHT22;44361;51.476;5.700;2023-04-25T01:10:00;6.50;99.90
58582;DHT22;44361;51.476;5.700;2023-04-25T01:12:26;6.50;99.90
58582;DHT22;44361;51.476;5.700;2023-04-25T01:14:52;6.50;99.90
58582;DHT22;44361;51.476;5.700;2023-04-25T01:17:18;6.50;99.90
58582;DHT22;44361;51.476;5.700;2023-04-25T01:19:44;6.50;99.90
58582;DHT22;44361;51.476;5.700;2023-04-25T01:22:13;6.50;99.90
58582;DHT22;44361;51.476;5.700;2023-04-25T01:24:39;6.50;99.90
58582;DHT22;44361;51.476;5.700;2023-04-25T01:27:05;6.50;99.90
58582;DHT22;44361;51.476;5.700;2023-04-25T01:29:34;6.40;99.90
58582;DHT22;44361;51.476;5.700;2023-04-25T01:32:01;6.40;99.90
58582;DHT22;44361;51.476;5.700;2023-04-25T01:34:27;6.30;99.90
58582;DHT22;44361;51.476;5.700;2023-04-25T01:36:53;6.20;99.90
58582;DHT22;44361;51.476;5.700;2023-04-25T01:39:19;6.20;99.90
58582;DHT22;44361;51.476;5.700;2023-04-25T01:41:46;6.10;99.90
58582;DHT22;44361;51.476;5.700;2023-04-25T01:44:11;6.00;99.90
58582;DHT22;44361;51.476;5.700;2023-04-25T01:46:37;5.90;99.90
58582;DHT22;44361;51.476;5.700;2023-04-25T01:49:03;5.80;99.90
58582;DHT22;44361;51.476;5.700;2023-04-25T01:51:28;5.80;99.90
58582;DHT22;44361;51.476;5.700;2023-04-25T01:53:55;5.80;99.90
58582;DHT22;44361;51.476;5.700;2023-04-25T01:56:21;5.80;99.90
58582;DHT22;44361;51.476;5.700;2023-04-25T01:58:47;5.90;99.90
58582;DHT22;44361;51.476;5.700;2023-04-25T02:01:12;5.90;99.90
58582;DHT22;44361;51.476;5.700;2023-04-25T02:03:38;6.00;99.90
58582;DHT22;44361;51.476;5.700;2023-04-25T02:06:04;6.00;99.90
58582;DHT22;44361;51.476;5.700;2023-04-25T02:08:29;6.10;99.90
58582;DHT22;44361;51.476;5.700;2023-04-25T02:10:55;6.00;99.90
58582;DHT22;44361;51.476;5.700;2023-04-25T02:13:21;6.00;99.90
58582;DHT22;44361;51.476;5.700;2023-04-25T02:15:46;6.00;99.90
58582;DHT22;44361;51.476;5.700;2023-04-25T02:18:12;6.00;99.90
58582;DHT22;44361;51.476;5.700;2023-04-25T02:20:38;6.00;99.90
58582;DHT22;44361;51.476;5.700;2023-04-25T02:23:03;6.00;99.90
58582;DHT22;44361;51.476;5.700;2023-04-25T02:25:29;6.00;99.90
58582;DHT22;44361;51.476;5.700;2023-04-25T02:27:55;5.90;99.90
58582;DHT22;44361;51.476;5.700;2023-04-25T02:30:20;5.90;99.90
58582;DHT22;44361;51.476;5.700;2023-04-25T02:32:46;5.80;99.90
58582;DHT22;44361;51.476;5.700;2023-04-25T02:35:11;5.70;99.90
58582;DHT22;44361;51.476;5.700;2023-04-25T02:37:38;5.70;99.90
58582;DHT22;44361;51.476;5.700;2023-04-25T02:40:04;5.70;99.90
58582;DHT22;44361;51.476;5.700;2023-04-25T02:42:30;5.60;99.90
58582;DHT22;44361;51.476;5.700;2023-04-25T02:44:56;5.60;99.90
58582;DHT22;44361;51.476;5.700;2023-04-25T02:47:22;5.50;99.90
58582;DHT22;44361;51.476;5.700;2023-04-25T02:49:47;5.50;99.90
58582;DHT22;44361;51.476;5.700;2023-04-25T02:52:13;5.40;99.90
58582;DHT22;44361;51.476;5.700;2023-04-25T02:54:40;5.30;99.90
58582;DHT22;44361;51.476;5.700;2023-04-25T02:57:05;5.30;99.90
58582;DHT22;44361;51.476;5.700;2023-04-25T02:59:31;5.30;99.90
58582;DHT22;44361;51.476;5.700;2023-04-25T03:01:57;5.20;99.90
58582;DHT22;44361;51.476;5.700;2023-04-25T03:04:22;5.20;99.90
58582;DHT22;44361;51.476;5.700;2023-04-25T03:06:49;5.10;99.90
58582;DHT22;44361;51.476;5.700;2023-04-25T03:09:15;5.10;99.90
58582;DHT22;44361;51.476;5.700;2023-04-25T03:11:40;5.10;99.90
58582;DHT22;44361;51.476;5.700;2023-04-25T03:14:06;5.00;99.90
58582;DHT22;44361;51.476;5.700;2023-04-25T03:16:32;5.00;99.90
58582;DHT22;44361;51.476;5.700;2023-04-25T03:18:57;5.00;99.90
58582;DHT22;44361;51.476;5.700;2023-04-25T03:21:23;5.00;99.90
58582;DHT22;44361;51.476;5.700;2023-04-25T03:23:48;4.90;99.90
58582;DHT22;44361;51.476;5.700;2023-04-25T03:26:14;4.80;99.90
58582;DHT22;44361;51.476;5.700;2023-04-25T03:28:41;4.80;99.90
58582;DHT22;44361;51.476;5.700;2023-04-25T03:31:07;4.80;99.90
58582;DHT22;44361;51.476;5.700;2023-04-25T03:33:32;4.80;99.90
58582;DHT22;44361;51.476;5.700;2023-04-25T03:35:58;4.80;99.90
58582;DHT22;44361;51.476;5.700;2023-04-25T03:38:23;4.80;99.90
58582;DHT22;44361;51.476;5.700;2023-04-25T03:40:50;4.80;99.90
58582;DHT22;44361;51.476;5.700;2023-04-25T03:43:16;4.80;99.90
58582;DHT22;44361;51.476;5.700;2023-04-25T03:45:41;4.80;99.90
58582;DHT22;44361;51.476;5.700;2023-04-25T03:48:07;4.70;99.90
58582;DHT22;44361;51.476;5.700;2023-04-25T03:50:33;4.70;99.90
58582;DHT22;44361;51.476;5.700;2023-04-25T03:52:59;4.70;99.90
58582;DHT22;44361;51.476;5.700;2023-04-25T03:55:24;4.80;99.90
58582;DHT22;44361;51.476;5.700;2023-04-25T03:57:50;4.90;99.90
58582;DHT22;44361;51.476;5.700;2023-04-25T04:00:15;4.90;99.90
58582;DHT22;44361;51.476;5.700;2023-04-25T04:02:41;5.00;99.90
58582;DHT22;44361;51.476;5.700;2023-04-25T04:05:06;5.10;99.90
58582;DHT22;44361;51.476;5.700;2023-04-25T04:07:32;5.20;99.90
58582;DHT22;44361;51.476;5.700;2023-04-25T04:09:59;5.10;99.90
58582;DHT22;44361;51.476;5.700;2023-04-25T04:12:24;5.10;99.90
58582;DHT22;44361;51.476;5.700;2023-04-25T04:14:50;5.10;99.90
58582;DHT22;44361;51.476;5.700;2023-04-25T04:17:15;5.10;99.90
58582;DHT22;44361;51.476;5.700;2023-04-25T04:19:41;5.20;99.90
58582;DHT22;44361;51.476;5.700;2023-04-25T04:22:06;5.20;99.90
58582;DHT22;44361;51.476;5.700;2023-04-25T04:24:32;5.30;99.90
58582;DHT22;44361;51.476;5.700;2023-04-25T04:26:58;5.30;99.90
58582;DHT22;44361;51.476;5.700;2023-04-25T04:29:24;5.40;99.90
58582;DHT22;44361;51.476;5.700;2023-04-25T04:31:50;5.40;99.90
58582;DHT22;44361;51.476;5.700;2023-04-25T04:34:17;5.50;99.90
58582;DHT22;44361;51.476;5.700;2023-04-25T04:36:47;5.50;99.90
58582;DHT22;44361;51.476;5.700;2023-04-25T04:39:13;5.50;99.90
58582;DHT22;44361;51.476;5.700;2023-04-25T04:41:39;5.60;99.90
58582;DHT22;44361;51.476;5.700;2023-04-25T04:44:05;5.60;99.90
58582;DHT22;44361;51.476;5.700;2023-04-25T04:46:32;5.70;99.90
58582;DHT22;44361;51.476;5.700;2023-04-25T04:49:04;5.80;99.90
58582;DHT22;44361;51.476;5.700;2023-04-25T04:51:30;5.70;99.90
58582;DHT22;44361;51.476;5.700;2023-04-25T04:53:56;5.80;99.90
58582;DHT22;44361;51.476;5.700;2023-04-25T04:56:24;5.80;99.90
58582;DHT22;44361;51.476;5.700;2023-04-25T04:58:51;5.90;99.90
58582;DHT22;44361;51.476;5.700;2023-04-25T05:01:16;6.00;99.90
58582;DHT22;44361;51.476;5.700;2023-04-25T05:03:42;6.10;99.90
58582;DHT22;44361;51.476;5.700;2023-04-25T05:06:07;6.10;99.90
58582;DHT22;44361;51.476;5.700;2023-04-25T05:08:34;6.20;99.90
58582;DHT22;44361;51.476;5.700;2023-04-25T05:10:59;6.20;99.90
58582;DHT22;44361;51.476;5.700;2023-04-25T05:13:25;6.20;99.90
58582;DHT22;44361;51.476;5.700;2023-04-25T05:15:50;6.20;99.90
58582;DHT22;44361;51.476;5.700;2023-04-25T05:18:16;6.20;99.90
58582;DHT22;44361;51.476;5.700;2023-04-25T05:20:41;6.20;99.90
58582;DHT22;44361;51.476;5.700;2023-04-25T05:23:07;6.40;99.90
58582;DHT22;44361;51.476;5.700;2023-04-25T05:25:33;6.40;99.90
58582;DHT22;44361;51.476;5.700;2023-04-25T05:27:58;6.50;99.90
58582;DHT22;44361;51.476;5.700;2023-04-25T05:30:24;6.50;99.90
58582;DHT22;44361;51.476;5.700;2023-04-25T05:32:50;6.60;99.90
58582;DHT22;44361;51.476;5.700;2023-04-25T05:35:15;6.60;99.90
58582;DHT22;44361;51.476;5.700;2023-04-25T05:37:41;6.70;99.90
58582;DHT22;44361;51.476;5.700;2023-04-25T05:40:08;6.80;99.90
58582;DHT22;44361;51.476;5.700;2023-04-25T05:42:34;6.80;99.90
58582;DHT22;44361;51.476;5.700;2023-04-25T05:44:59;6.90;99.90
58582;DHT22;44361;51.476;5.700;2023-04-25T05:47:26;7.10;99.90
58582;DHT22;44361;51.476;5.700;2023-04-25T05:49:51;7.50;99.90
58582;DHT22;44361;51.476;5.700;2023-04-25T05:52:17;7.60;99.90
58582;DHT22;44361;51.476;5.700;2023-04-25T05:54:42;7.70;99.90
58582;DHT22;44361;51.476;5.700;2023-04-25T05:57:08;7.70;99.90
58582;DHT22;44361;51.476;5.700;2023-04-25T05:59:33;7.60;99.90
58582;DHT22;44361;51.476;5.700;2023-04-25T06:01:59;7.70;99.90
58582;DHT22;44361;51.476;5.700;2023-04-25T06:04:26;7.70;99.90
58582;DHT22;44361;51.476;5.700;2023-04-25T06:06:51;7.90;99.90
58582;DHT22;44361;51.476;5.700;2023-04-25T06:09:17;8.10;99.90
58582;DHT22;44361;51.476;5.700;2023-04-25T06:11:42;8.00;99.90
58582;DHT22;44361;51.476;5.700;2023-04-25T06:14:08;8.00;99.90
58582;DHT22;44361;51.476;5.700;2023-04-25T06:16:33;8.00;99.90
58582;DHT22;44361;51.476;5.700;2023-04-25T06:18:59;7.90;99.90
58582;DHT22;44361;51.476;5.700;2023-04-25T06:21:24;7.70;99.90
58582;DHT22;44361;51.476;5.700;2023-04-25T06:23:50;7.80;99.90
58582;DHT22;44361;51.476;5.700;2023-04-25T06:26:16;7.80;99.90
58582;DHT22;44361;51.476;5.700;2023-04-25T06:28:41;7.90;99.90
58582;DHT22;44361;51.476;5.700;2023-04-25T06:31:07;8.30;99.90
58582;DHT22;44361;51.476;5.700;2023-04-25T06:33:32;8.40;99.30
58582;DHT22;44361;51.476;5.700;2023-04-25T06:35:58;8.90;99.40
58582;DHT22;44361;51.476;5.700;2023-04-25T06:38:23;9.10;98.30
58582;DHT22;44361;51.476;5.700;2023-04-25T06:40:49;9.60;97.50
58582;DHT22;44361;51.476;5.700;2023-04-25T06:43:15;9.90;97.20
58582;DHT22;44361;51.476;5.700;2023-04-25T06:45:40;9.60;95.10
58582;DHT22;44361;51.476;5.700;2023-04-25T06:48:07;9.60;95.10
58582;DHT22;44361;51.476;5.700;2023-04-25T06:50:33;9.30;94.60
58582;DHT22;44361;51.476;5.700;2023-04-25T06:52:59;9.30;96.60
58582;DHT22;44361;51.476;5.700;2023-04-25T06:55:27;9.20;95.90
58582;DHT22;44361;51.476;5.700;2023-04-25T06:57:52;9.40;95.40
58582;DHT22;44361;51.476;5.700;2023-04-25T07:00:18;9.10;95.80
58582;DHT22;44361;51.476;5.700;2023-04-25T07:02:44;9.10;96.20
58582;DHT22;44361;51.476;5.700;2023-04-25T07:05:10;8.90;95.90
58582;DHT22;44361;51.476;5.700;2023-04-25T07:07:35;8.80;96.60
58582;DHT22;44361;51.476;5.700;2023-04-25T07:10:01;9.00;96.30
58582;DHT22;44361;51.476;5.700;2023-04-25T07:12:26;9.20;95.60
58582;DHT22;44361;51.476;5.700;2023-04-25T07:14:52;9.50;96.50
58582;DHT22;44361;51.476;5.700;2023-04-25T07:17:17;9.30;95.60
58582;DHT22;44361;51.476;5.700;2023-04-25T07:19:43;9.10;94.90
58582;DHT22;44361;51.476;5.700;2023-04-25T07:22:08;9.10;96.10
58582;DHT22;44361;51.476;5.700;2023-04-25T07:24:34;9.10;94.40
58582;DHT22;44361;51.476;5.700;2023-04-25T07:27:00;9.20;95.10
58582;DHT22;44361;51.476;5.700;2023-04-25T07:29:29;9.20;95.80
58582;DHT22;44361;51.476;5.700;2023-04-25T07:31:56;9.40;94.60
58582;DHT22;44361;51.476;5.700;2023-04-25T07:34:21;9.40;94.20
58582;DHT22;44361;51.476;5.700;2023-04-25T07:36:47;9.40;94.40
58582;DHT22;44361;51.476;5.700;2023-04-25T07:39:12;9.40;93.60
58582;DHT22;44361;51.476;5.700;2023-04-25T07:41:38;9.50;94.40
58582;DHT22;44361;51.476;5.700;2023-04-25T07:44:03;9.40;93.30
58582;DHT22;44361;51.476;5.700;2023-04-25T07:46:29;9.50;93.50
58582;DHT22;44361;51.476;5.700;2023-04-25T07:48:55;9.70;93.80
58582;DHT22;44361;51.476;5.700;2023-04-25T07:51:20;9.90;94.40
58582;DHT22;44361;51.476;5.700;2023-04-25T07:53:47;9.90;92.10
58582;DHT22;44361;51.476;5.700;2023-04-25T07:56:13;10.00;92.80
58582;DHT22;44361;51.476;5.700;2023-04-25T07:58:38;10.20;91.30
58582;DHT22;44361;51.476;5.700;2023-04-25T08:01:04;10.20;90.60
58582;DHT22;44361;51.476;5.700;2023-04-25T08:03:29;10.30;89.30
58582;DHT22;44361;51.476;5.700;2023-04-25T08:05:55;10.40;88.50
58582;DHT22;44361;51.476;5.700;2023-04-25T08:08:20;10.10;90.60
58582;DHT22;44361;51.476;5.700;2023-04-25T08:10:46;9.90;88.20
58582;DHT22;44361;51.476;5.700;2023-04-25T08:13:13;9.80;89.00
58582;DHT22;44361;51.476;5.700;2023-04-25T08:15:39;10.00;90.50
58582;DHT22;44361;51.476;5.700;2023-04-25T08:18:04;10.30;89.80
58582;DHT22;44361;51.476;5.700;2023-04-25T08:20:30;10.40;86.80
58582;DHT22;44361;51.476;5.700;2023-04-25T08:22:56;10.50;90.00
58582;DHT22;44361;51.476;5.700;2023-04-25T08:25:21;10.70;86.60
58582;DHT22;44361;51.476;5.700;2023-04-25T08:27:47;10.80;84.10
58582;DHT22;44361;51.476;5.700;2023-04-25T08:30:12;11.00;84.50
58582;DHT22;44361;51.476;5.700;2023-04-25T08:32:38;11.10;87.00
58582;DHT22;44361;51.476;5.700;2023-04-25T08:35:04;11.30;87.60
58582;DHT22;44361;51.476;5.700;2023-04-25T08:37:30;10.80;84.00
58582;DHT22;44361;51.476;5.700;2023-04-25T08:39:56;10.50;86.70
58582;DHT22;44361;51.476;5.700;2023-04-25T08:42:21;10.20;84.20
58582;DHT22;44361;51.476;5.700;2023-04-25T08:44:48;10.40;84.60
58582;DHT22;44361;51.476;5.700;2023-04-25T08:47:14;10.60;81.90
58582;DHT22;44361;51.476;5.700;2023-04-25T08:49:44;10.60;84.10
58582;DHT22;44361;51.476;5.700;2023-04-25T08:52:13;10.70;85.00
58582;DHT22;44361;51.476;5.700;2023-04-25T08:54:42;10.80;84.30
58582;DHT22;44361;51.476;5.700;2023-04-25T08:57:09;10.70;78.40
58582;DHT22;44361;51.476;5.700;2023-04-25T08:59:35;10.40;77.20
58582;DHT22;44361;51.476;5.700;2023-04-25T09:02:02;10.20;79.40
58582;DHT22;44361;51.476;5.700;2023-04-25T09:04:31;9.90;82.20
58582;DHT22;44361;51.476;5.700;2023-04-25T09:06:56;10.10;83.30
58582;DHT22;44361;51.476;5.700;2023-04-25T09:09:23;10.00;82.40
58582;DHT22;44361;51.476;5.700;2023-04-25T09:11:49;10.00;84.10
58582;DHT22;44361;51.476;5.700;2023-04-25T09:19:24;10.10;84.90
58582;DHT22;44361;51.476;5.700;2023-04-25T09:21:50;10.10;83.50
58582;DHT22;44361;51.476;5.700;2023-04-25T09:24:19;10.40;85.50
58582;DHT22;44361;51.476;5.700;2023-04-25T09:26:54;10.20;80.00
58582;DHT22;44361;51.476;5.700;2023-04-25T09:29:32;10.50;84.50
58582;DHT22;44361;51.476;5.700;2023-04-25T09:32:11;10.70;82.20
58582;DHT22;44361;51.476;5.700;2023-04-25T09:34:43;11.50;87.80
58582;DHT22;44361;51.476;5.700;2023-04-25T09:37:10;12.20;79.30
58582;DHT22;44361;51.476;5.700;2023-04-25T09:39:37;12.40;78.40
58582;DHT22;44361;51.476;5.700;2023-04-25T09:42:04;12.10;77.30
58582;DHT22;44361;51.476;5.700;2023-04-25T09:44:30;12.10;76.90
58582;DHT22;44361;51.476;5.700;2023-04-25T09:46:56;12.00;78.20
58582;DHT22;44361;51.476;5.700;2023-04-25T09:49:22;12.00;72.10
58582;DHT22;44361;51.476;5.700;2023-04-25T09:51:58;11.30;77.30
58582;DHT22;44361;51.476;5.700;2023-04-25T09:54:24;11.40;78.20
58582;DHT22;44361;51.476;5.700;2023-04-25T09:56:52;11.10;77.60
58582;DHT22;44361;51.476;5.700;2023-04-25T09:59:21;10.70;77.40
58582;DHT22;44361;51.476;5.700;2023-04-25T10:01:49;10.40;78.30
58582;DHT22;44361;51.476;5.700;2023-04-25T10:04:24;10.20;79.40
58582;DHT22;44361;51.476;5.700;2023-04-25T10:06:53;9.40;79.10
58582;DHT22;44361;51.476;5.700;2023-04-25T10:09:20;9.50;77.00
58582;DHT22;44361;51.476;5.700;2023-04-25T10:11:46;9.60;78.00
58582;DHT22;44361;51.476;5.700;2023-04-25T10:14:16;9.00;80.00
58582;DHT22;44361;51.476;5.700;2023-04-25T10:16:42;8.60;81.10
58582;DHT22;44361;51.476;5.700;2023-04-25T10:19:09;8.40;83.80
58582;DHT22;44361;51.476;5.700;2023-04-25T10:21:40;8.20;87.40
58582;DHT22;44361;51.476;5.700;2023-04-25T10:24:09;8.30;88.90
58582;DHT22;44361;51.476;5.700;2023-04-25T10:26:35;8.50;87.70
58582;DHT22;44361;51.476;5.700;2023-04-25T10:29:02;8.70;90.20
58582;DHT22;44361;51.476;5.700;2023-04-25T10:31:31;8.80;87.50
58582;DHT22;44361;51.476;5.700;2023-04-25T10:33:59;9.10;83.10
58582;DHT22;44361;51.476;5.700;2023-04-25T10:36:25;9.50;79.90
58582;DHT22;44361;51.476;5.700;2023-04-25T10:38:52;9.80;76.30
58582;DHT22;44361;51.476;5.700;2023-04-25T10:41:21;9.90;71.30
58582;DHT22;44361;51.476;5.700;2023-04-25T10:43:49;10.00;76.00
58582;DHT22;44361;51.476;5.700;2023-04-25T10:46:27;10.30;72.10
58582;DHT22;44361;51.476;5.700;2023-04-25T10:48:54;10.50;66.00
58582;DHT22;44361;51.476;5.700;2023-04-25T10:51:25;10.80;69.50
58582;DHT22;44361;51.476;5.700;2023-04-25T10:56:21;10.90;71.10
58582;DHT22;44361;51.476;5.700;2023-04-25T10:58:47;11.30;66.80
58582;DHT22;44361;51.476;5.700;2023-04-25T11:01:14;11.40;69.70
58582;DHT22;44361;51.476;5.700;2023-04-25T11:03:41;11.40;72.40
58582;DHT22;44361;51.476;5.700;2023-04-25T11:06:15;11.40;73.00
58582;DHT22;44361;51.476;5.700;2023-04-25T11:08:50;11.30;71.80
58582;DHT22;44361;51.476;5.700;2023-04-25T11:11:17;11.30;72.80
58582;DHT22;44361;51.476;5.700;2023-04-25T11:13:43;11.40;74.30
58582;DHT22;44361;51.476;5.700;2023-04-25T11:16:08;12.10;74.90
58582;DHT22;44361;51.476;5.700;2023-04-25T11:18:34;12.70;70.60
58582;DHT22;44361;51.476;5.700;2023-04-25T11:21:00;12.60;70.60
58582;DHT22;44361;51.476;5.700;2023-04-25T11:23:26;12.50;68.30
58582;DHT22;44361;51.476;5.700;2023-04-25T11:25:52;11.80;67.80
58582;DHT22;44361;51.476;5.700;2023-04-25T11:28:21;11.20;72.30
58582;DHT22;44361;51.476;5.700;2023-04-25T11:30:50;10.40;78.70
58582;DHT22;44361;51.476;5.700;2023-04-25T11:33:16;9.60;87.40
58582;DHT22;44361;51.476;5.700;2023-04-25T11:35:42;8.70;94.80
58582;DHT22;44361;51.476;5.700;2023-04-25T11:38:07;8.20;96.60
58582;DHT22;44361;51.476;5.700;2023-04-25T11:40:35;7.90;98.80
58582;DHT22;44361;51.476;5.700;2023-04-25T11:43:01;7.90;99.90
58582;DHT22;44361;51.476;5.700;2023-04-25T11:45:27;7.90;98.70
58582;DHT22;44361;51.476;5.700;2023-04-25T11:47:52;7.90;99.70
58582;DHT22;44361;51.476;5.700;2023-04-25T11:50:18;7.90;99.90
58582;DHT22;44361;51.476;5.700;2023-04-25T11:52:45;7.80;99.90
58582;DHT22;44361;51.476;5.700;2023-04-25T11:55:19;7.80;99.90
58582;DHT22;44361;51.476;5.700;2023-04-25T11:57:48;8.00;99.90
58582;DHT22;44361;51.476;5.700;2023-04-25T12:00:21;8.30;99.80
58582;DHT22;44361;51.476;5.700;2023-04-25T12:02:51;8.60;99.30
58582;DHT22;44361;51.476;5.700;2023-04-25T12:05:16;8.90;99.60
58582;DHT22;44361;51.476;5.700;2023-04-25T12:07:42;9.30;99.80
58582;DHT22;44361;51.476;5.700;2023-04-25T12:10:12;9.80;98.80
58582;DHT22;44361;51.476;5.700;2023-04-25T12:12:41;10.00;98.30
58582;DHT22;44361;51.476;5.700;2023-04-25T12:17:38;10.10;95.50
58582;DHT22;44361;51.476;5.700;2023-04-25T12:20:15;10.40;96.50
58582;DHT22;44361;51.476;5.700;2023-04-25T12:22:42;10.80;92.80
58582;DHT22;44361;51.476;5.700;2023-04-25T12:25:57;10.90;87.00
58582;DHT22;44361;51.476;5.700;2023-04-25T12:28:14;10.60;88.70
58582;DHT22;44361;51.476;5.700;2023-04-25T12:30:59;10.60;85.50
58582;DHT22;44361;51.476;5.700;2023-04-25T12:33:27;10.90;80.50
58582;DHT22;44361;51.476;5.700;2023-04-25T12:35:56;11.40;80.80
58582;DHT22;44361;51.476;5.700;2023-04-25T12:38:23;11.50;72.70
58582;DHT22;44361;51.476;5.700;2023-04-25T12:40:48;11.50;73.40
58582;DHT22;44361;51.476;5.700;2023-04-25T12:43:14;11.50;73.00
58582;DHT22;44361;51.476;5.700;2023-04-25T12:45:39;11.40;68.10
58582;DHT22;44361;51.476;5.700;2023-04-25T12:48:05;11.50;71.50
58582;DHT22;44361;51.476;5.700;2023-04-25T12:50:31;12.20;76.60
58582;DHT22;44361;51.476;5.700;2023-04-25T12:52:57;12.20;68.00
58582;DHT22;44361;51.476;5.700;2023-04-25T12:55:22;12.00;70.70
58582;DHT22;44361;51.476;5.700;2023-04-25T12:57:48;11.90;71.80
58582;DHT22;44361;51.476;5.700;2023-04-25T13:00:14;11.60;66.90
58582;DHT22;44361;51.476;5.700;2023-04-25T13:02:40;11.50;63.40
58582;DHT22;44361;51.476;5.700;2023-04-25T13:05:06;11.30;61.00
58582;DHT22;44361;51.476;5.700;2023-04-25T13:07:32;11.00;58.50
58582;DHT22;44361;51.476;5.700;2023-04-25T13:09:57;10.90;61.40
58582;DHT22;44361;51.476;5.700;2023-04-25T13:12:23;10.90;59.10
58582;DHT22;44361;51.476;5.700;2023-04-25T13:14:48;11.30;58.40
58582;DHT22;44361;51.476;5.700;2023-04-25T13:17:14;11.70;59.70
58582;DHT22;44361;51.476;5.700;2023-04-25T13:19:39;11.90;58.80
58582;DHT22;44361;51.476;5.700;2023-04-25T13:22:05;12.00;56.10
58582;DHT22;44361;51.476;5.700;2023-04-25T13:24:31;12.40;62.30
58582;DHT22;44361;51.476;5.700;2023-04-25T13:26:56;12.90;62.10
58582;DHT22;44361;51.476;5.700;2023-04-25T13:29:22;12.60;64.30
58582;DHT22;44361;51.476;5.700;2023-04-25T13:31:47;11.50;68.20
58582;DHT22;44361;51.476;5.700;2023-04-25T13:34:13;11.10;69.50
58582;DHT22;44361;51.476;5.700;2023-04-25T13:36:38;10.60;73.00
58582;DHT22;44361;51.476;5.700;2023-04-25T13:39:04;10.40;73.70
58582;DHT22;44361;51.476;5.700;2023-04-25T13:41:30;10.40;77.80
58582;DHT22;44361;51.476;5.700;2023-04-25T13:43:56;10.80;76.40
58582;DHT22;44361;51.476;5.700;2023-04-25T13:46:21;11.00;70.00
58582;DHT22;44361;51.476;5.700;2023-04-25T13:48:47;11.30;68.20
58582;DHT22;44361;51.476;5.700;2023-04-25T13:51:15;11.70;68.00
58582;DHT22;44361;51.476;5.700;2023-04-25T13:53:41;12.00;66.60
58582;DHT22;44361;51.476;5.700;2023-04-25T13:56:06;12.10;60.20
58582;DHT22;44361;51.476;5.700;2023-04-25T13:58:32;11.50;62.10
58582;DHT22;44361;51.476;5.700;2023-04-25T14:00:58;11.20;61.10
58582;DHT22;44361;51.476;5.700;2023-04-25T14:03:25;11.40;63.50
58582;DHT22;44361;51.476;5.700;2023-04-25T14:05:51;11.50;63.60
58582;DHT22;44361;51.476;5.700;2023-04-25T14:08:16;11.50;65.80
58582;DHT22;44361;51.476;5.700;2023-04-25T14:10:42;11.40;64.90
58582;DHT22;44361;51.476;5.700;2023-04-25T14:13:07;11.50;63.60
58582;DHT22;44361;51.476;5.700;2023-04-25T14:15:33;11.90;64.50
58582;DHT22;44361;51.476;5.700;2023-04-25T14:18:00;12.20;64.30
58582;DHT22;44361;51.476;5.700;2023-04-25T14:20:26;12.40;63.20
58582;DHT22;44361;51.476;5.700;2023-04-25T14:22:52;12.00;62.20
58582;DHT22;44361;51.476;5.700;2023-04-25T14:25:19;11.60;64.50
58582;DHT22;44361;51.476;5.700;2023-04-25T14:27:45;11.00;66.60
58582;DHT22;44361;51.476;5.700;2023-04-25T14:30:18;10.60;67.70
58582;DHT22;44361;51.476;5.700;2023-04-25T14:32:44;10.30;69.90
58582;DHT22;44361;51.476;5.700;2023-04-25T14:35:10;10.10;70.80
58582;DHT22;44361;51.476;5.700;2023-04-25T14:37:36;9.90;70.90
58582;DHT22;44361;51.476;5.700;2023-04-25T14:40:01;10.10;73.00
58582;DHT22;44361;51.476;5.700;2023-04-25T14:42:27;10.60;74.00
58582;DHT22;44361;51.476;5.700;2023-04-25T14:44:53;10.80;71.00
58582;DHT22;44361;51.476;5.700;2023-04-25T14:47:18;11.00;67.20
58582;DHT22;44361;51.476;5.700;2023-04-25T14:49:44;11.20;67.00
58582;DHT22;44361;51.476;5.700;2023-04-25T14:52:12;11.40;64.40
58582;DHT22;44361;51.476;5.700;2023-04-25T14:54:37;11.20;63.50
58582;DHT22;44361;51.476;5.700;2023-04-25T14:57:03;11.20;65.70
58582;DHT22;44361;51.476;5.700;2023-04-25T14:59:28;11.30;66.00
58582;DHT22;44361;51.476;5.700;2023-04-25T15:01:54;10.90;66.30
58582;DHT22;44361;51.476;5.700;2023-04-25T15:04:19;10.60;66.70
58582;DHT22;44361;51.476;5.700;2023-04-25T15:06:45;10.70;66.70
58582;DHT22;44361;51.476;5.700;2023-04-25T15:09:11;10.70;67.90
58582;DHT22;44361;51.476;5.700;2023-04-25T15:11:37;10.80;66.70
58582;DHT22;44361;51.476;5.700;2023-04-25T15:14:03;11.10;69.60
58582;DHT22;44361;51.476;5.700;2023-04-25T15:16:28;11.10;65.10
58582;DHT22;44361;51.476;5.700;2023-04-25T15:18:54;11.20;65.90
58582;DHT22;44361;51.476;5.700;2023-04-25T15:21:19;10.90;67.70
58582;DHT22;44361;51.476;5.700;2023-04-25T15:23:45;10.60;64.90
58582;DHT22;44361;51.476;5.700;2023-04-25T15:26:11;10.80;67.60
58582;DHT22;44361;51.476;5.700;2023-04-25T15:28:37;11.10;66.30
58582;DHT22;44361;51.476;5.700;2023-04-25T15:31:02;10.80;66.70
58582;DHT22;44361;51.476;5.700;2023-04-25T15:33:28;10.90;65.00
58582;DHT22;44361;51.476;5.700;2023-04-25T15:35:53;10.90;65.00
58582;DHT22;44361;51.476;5.700;2023-04-25T15:38:19;11.20;68.00
58582;DHT22;44361;51.476;5.700;2023-04-25T15:40:45;11.20;65.10
58582;DHT22;44361;51.476;5.700;2023-04-25T15:43:10;11.30;66.20
58582;DHT22;44361;51.476;5.700;2023-04-25T15:45:40;11.40;68.30